createdAt,value
2023-04-25T00:00:57.173Z,22.82
2023-04-25T00:01:57.146Z,22.83
2023-04-25T00:02:57.368Z,22.82
2023-04-25T00:03:57.688Z,22.82
2023-04-25T00:04:57.288Z,22.81
2023-04-25T00:05:57.195Z,22.81
2023-04-25T00:06:57.209Z,22.81
2023-04-25T00:07:57.167Z,22.81
2023-04-25T00:08:57.203Z,22.81
2023-04-25T00:09:57.239Z,22.81
2023-04-25T00:10:57.338Z,22.82
2023-04-25T00:11:57.244Z,22.82
2023-04-25T00:12:57.302Z,22.81
2023-04-25T00:13:57.307Z,22.82
2023-04-25T00:14:57.409Z,22.82
2023-04-25T00:15:57.714Z,22.81
2023-04-25T00:16:57.343Z,22.81
2023-04-25T00:17:57.443Z,22.81
2023-04-25T00:18:57.389Z,22.81
2023-04-25T00:19:57.449Z,22.80
2023-04-25T00:20:57.489Z,22.80
2023-04-25T00:21:57.472Z,22.80
2023-04-25T00:22:57.500Z,22.80
2023-04-25T00:23:57.520Z,22.80
2023-04-25T00:24:57.539Z,22.79
2023-04-25T00:25:57.546Z,22.79
2023-04-25T00:26:57.606Z,22.80
2023-04-25T00:27:57.636Z,22.80
2023-04-25T00:28:57.628Z,22.79
2023-04-25T00:29:57.650Z,22.79
2023-04-25T00:30:57.694Z,22.79
2023-04-25T00:31:57.701Z,22.80
2023-04-25T00:32:57.748Z,22.80
2023-04-25T00:33:57.755Z,22.80
2023-04-25T00:34:57.769Z,22.80
2023-04-25T00:35:57.753Z,22.80
2023-04-25T00:36:57.820Z,22.80
2023-04-25T00:37:57.852Z,22.80
2023-04-25T00:38:57.845Z,22.80
2023-04-25T00:39:57.857Z,22.81
2023-04-25T00:40:57.898Z,22.80
2023-04-25T00:41:57.931Z,22.80
2023-04-25T00:42:57.927Z,22.80
2023-04-25T00:43:57.974Z,22.80
2023-04-25T00:44:57.977Z,22.80
2023-04-25T00:45:57.997Z,22.80
2023-04-25T00:46:58.056Z,22.80
2023-04-25T00:47:58.162Z,22.81
2023-04-25T00:48:58.053Z,22.81
2023-04-25T00:49:58.099Z,22.81
2023-04-25T00:50:58.118Z,22.81
2023-04-25T00:51:58.121Z,22.80
2023-04-25T00:52:58.295Z,22.79
2023-04-25T00:53:58.229Z,22.80
2023-04-25T00:54:58.228Z,22.80
2023-04-25T00:55:58.230Z,22.80
2023-04-25T00:56:58.265Z,22.80
2023-04-25T00:57:58.272Z,22.80
2023-04-25T00:58:58.289Z,22.80
2023-04-25T00:59:58.345Z,22.79
2023-04-25T01:00:58.382Z,22.80
2023-04-25T01:01:58.407Z,22.80
2023-04-25T01:02:58.507Z,22.80
2023-04-25T01:03:58.437Z,22.80
2023-04-25T01:04:58.426Z,22.80
2023-04-25T01:05:58.430Z,22.80
2023-04-25T01:06:58.448Z,22.80
2023-04-25T01:07:58.451Z,22.80
2023-04-25T01:08:58.499Z,22.78
2023-04-25T01:09:58.530Z,22.79
2023-04-25T01:10:58.564Z,22.80
2023-04-25T01:11:58.609Z,22.79
2023-04-25T01:12:58.572Z,22.79
2023-04-25T01:13:58.613Z,22.79
2023-04-25T01:14:58.632Z,22.79
2023-04-25T01:15:58.635Z,22.80
2023-04-25T01:16:58.788Z,22.80
2023-04-25T01:17:58.695Z,22.80
2023-04-25T01:18:58.719Z,22.80
2023-04-25T01:19:58.692Z,22.80
2023-04-25T01:20:58.732Z,22.80
2023-04-25T01:21:58.748Z,22.80
2023-04-25T01:22:58.779Z,22.79
2023-04-25T01:23:58.820Z,22.79
2023-04-25T01:24:58.816Z,22.79
2023-04-25T01:25:58.823Z,22.78
2023-04-25T01:26:58.868Z,22.80
2023-04-25T01:27:58.869Z,22.79
2023-04-25T01:28:58.903Z,22.80
2023-04-25T01:29:58.904Z,22.79
2023-04-25T01:30:58.924Z,22.79
2023-04-25T01:31:58.923Z,22.79
2023-04-25T01:32:58.983Z,22.80
2023-04-25T01:33:58.988Z,22.79
2023-04-25T01:34:58.982Z,22.78
2023-04-25T01:35:58.999Z,22.78
2023-04-25T01:36:59.064Z,22.78
2023-04-25T01:37:59.057Z,22.79
2023-04-25T01:38:59.092Z,22.80
2023-04-25T01:39:59.132Z,22.79
2023-04-25T01:40:59.139Z,22.79
2023-04-25T01:41:59.138Z,22.78
2023-04-25T01:42:59.149Z,22.79
2023-04-25T01:43:59.190Z,22.80
2023-04-25T01:44:59.175Z,22.79
2023-04-25T01:45:59.270Z,22.79
2023-04-25T01:46:59.276Z,22.79
2023-04-25T01:47:59.294Z,22.79
2023-04-25T01:48:59.328Z,22.79
2023-04-25T01:49:59.337Z,22.79
2023-04-25T01:50:59.361Z,22.79
2023-04-25T01:51:59.364Z,22.77
2023-04-25T01:52:59.403Z,22.79
2023-04-25T01:54:00.989Z,22.78
2023-04-25T01:54:59.460Z,22.78
2023-04-25T01:55:59.457Z,22.78
2023-04-25T01:56:59.504Z,22.77
2023-04-25T01:57:59.537Z,22.77
2023-04-25T01:58:59.593Z,22.78
2023-04-25T01:59:59.604Z,22.78
2023-04-25T02:00:59.696Z,22.78
2023-04-25T02:01:59.826Z,22.77
2023-04-25T02:02:59.855Z,22.78
2023-04-25T02:03:59.918Z,22.78
2023-04-25T02:04:59.706Z,22.78
2023-04-25T02:05:59.747Z,22.78
2023-04-25T02:06:59.756Z,22.78
2023-04-25T02:07:59.830Z,22.77
2023-04-25T02:08:59.822Z,22.76
2023-04-25T02:09:59.891Z,22.77
2023-04-25T02:10:59.905Z,22.77
2023-04-25T02:11:59.904Z,22.77
2023-04-25T02:12:59.945Z,22.76
2023-04-25T02:13:59.974Z,22.77
2023-04-25T02:15:00.019Z,22.77
2023-04-25T02:16:00.159Z,22.78
2023-04-25T02:17:00.215Z,22.77
2023-04-25T02:18:00.097Z,22.77
2023-04-25T02:19:00.097Z,22.78
2023-04-25T02:20:00.161Z,22.78
2023-04-25T02:21:00.137Z,22.78
2023-04-25T02:22:00.165Z,22.77
2023-04-25T02:23:00.228Z,22.77
2023-04-25T02:24:00.250Z,22.78
2023-04-25T02:25:00.244Z,22.78
2023-04-25T02:26:00.250Z,22.77
2023-04-25T02:27:00.310Z,22.78
2023-04-25T02:28:00.302Z,22.78
2023-04-25T02:29:00.340Z,22.78
2023-04-25T02:30:00.348Z,22.77
2023-04-25T02:31:00.453Z,22.77
2023-04-25T02:32:00.415Z,22.78
2023-04-25T02:33:00.469Z,22.78
2023-04-25T02:34:00.471Z,22.78
2023-04-25T02:35:00.505Z,22.79
2023-04-25T02:36:00.545Z,22.79
2023-04-25T02:37:00.562Z,22.79
2023-04-25T02:38:00.598Z,22.79
2023-04-25T02:39:00.582Z,22.79
2023-04-25T02:40:00.672Z,22.80
2023-04-25T02:41:00.636Z,22.79
2023-04-25T02:42:00.666Z,22.79
2023-04-25T02:43:00.703Z,22.79
2023-04-25T02:44:00.685Z,22.80
2023-04-25T02:45:00.721Z,22.78
2023-04-25T02:46:00.747Z,22.78
2023-04-25T02:47:00.863Z,22.78
2023-04-25T02:48:00.820Z,22.77
2023-04-25T02:49:00.836Z,22.77
2023-04-25T02:50:00.875Z,22.78
2023-04-25T02:51:00.942Z,22.78
2023-04-25T02:52:00.947Z,22.78
2023-04-25T02:53:00.939Z,22.78
2023-04-25T02:54:00.948Z,22.78
2023-04-25T02:55:01.000Z,22.77
2023-04-25T02:56:01.000Z,22.78
2023-04-25T02:57:01.024Z,22.78
2023-04-25T02:58:01.089Z,22.78
2023-04-25T02:59:01.081Z,22.79
2023-04-25T03:00:01.159Z,22.80
2023-04-25T03:01:01.198Z,22.80
2023-04-25T03:02:01.145Z,22.80
2023-04-25T03:03:01.302Z,22.80
2023-04-25T03:04:01.243Z,22.81
2023-04-25T03:05:01.240Z,22.81
2023-04-25T03:06:01.252Z,22.82
2023-04-25T03:07:01.246Z,22.82
2023-04-25T03:08:01.248Z,22.82
2023-04-25T03:09:01.307Z,22.81
2023-04-25T03:10:01.303Z,22.81
2023-04-25T03:11:01.343Z,22.81
2023-04-25T03:12:01.395Z,22.82
2023-04-25T03:13:01.393Z,22.82
2023-04-25T03:14:01.393Z,22.82
2023-04-25T03:15:01.407Z,22.81
2023-04-25T03:16:01.450Z,22.82
2023-04-25T03:17:01.591Z,22.82
2023-04-25T03:18:01.517Z,22.81
2023-04-25T03:19:01.467Z,22.81
2023-04-25T03:20:01.571Z,22.81
2023-04-25T03:21:01.546Z,22.82
2023-04-25T03:22:01.563Z,22.83
2023-04-25T03:23:01.570Z,22.82
2023-04-25T03:24:01.589Z,22.82
2023-04-25T03:25:01.588Z,22.83
2023-04-25T03:26:01.639Z,22.82
2023-04-25T03:27:01.637Z,22.83
2023-04-25T03:28:01.731Z,22.84
2023-04-25T03:29:01.700Z,22.83
2023-04-25T03:30:01.757Z,22.85
2023-04-25T03:31:01.749Z,22.84
2023-04-25T03:32:01.769Z,22.85
2023-04-25T03:33:01.832Z,22.85
2023-04-25T03:34:01.803Z,22.85
2023-04-25T03:35:01.805Z,22.86
2023-04-25T03:36:02.093Z,22.86
2023-04-25T03:37:01.817Z,22.87
2023-04-25T03:38:01.790Z,22.87
2023-04-25T03:39:01.806Z,22.87
2023-04-25T03:40:01.843Z,22.88
2023-04-25T03:41:01.849Z,22.88
2023-04-25T03:42:01.897Z,22.89
2023-04-25T03:43:01.869Z,22.90
2023-04-25T03:44:01.869Z,22.89
2023-04-25T03:45:01.912Z,22.90
2023-04-25T03:46:03.197Z,22.90
2023-04-25T03:47:01.924Z,22.90
2023-04-25T03:48:02.001Z,22.91
2023-04-25T03:49:01.934Z,22.91
2023-04-25T03:50:01.938Z,22.91
2023-04-25T03:51:01.992Z,22.91
2023-04-25T03:52:01.964Z,22.92
2023-04-25T03:53:01.958Z,22.90
2023-04-25T03:54:01.972Z,22.91
2023-04-25T03:55:02.019Z,22.92
2023-04-25T03:56:02.000Z,22.92
2023-04-25T03:57:02.007Z,22.93
2023-04-25T03:58:02.025Z,22.93
2023-04-25T03:59:02.047Z,22.94
2023-04-25T04:00:02.082Z,22.94
2023-04-25T04:01:02.047Z,22.94
2023-04-25T04:02:02.081Z,22.95
2023-04-25T04:03:02.180Z,22.95
2023-04-25T04:04:02.238Z,22.95
2023-04-25T04:05:02.257Z,22.96
2023-04-25T04:06:02.125Z,22.95
2023-04-25T04:07:02.127Z,22.95
2023-04-25T04:08:02.085Z,22.96
2023-04-25T04:09:02.105Z,22.96
2023-04-25T04:10:02.169Z,22.96
2023-04-25T04:11:02.170Z,22.96
2023-04-25T04:12:02.120Z,22.97
2023-04-25T04:13:02.149Z,22.97
2023-04-25T04:14:02.139Z,22.97
2023-04-25T04:15:02.162Z,22.98
2023-04-25T04:16:02.160Z,22.98
2023-04-25T04:17:02.187Z,22.98
2023-04-25T04:18:02.177Z,22.98
2023-04-25T04:19:02.220Z,22.98
2023-04-25T04:20:02.182Z,22.98
2023-04-25T04:21:02.153Z,22.99
2023-04-25T04:22:02.177Z,22.99
2023-04-25T04:23:02.161Z,23.00
2023-04-25T04:24:02.183Z,23.01
2023-04-25T04:25:02.172Z,23.01
2023-04-25T04:26:02.167Z,23.01
2023-04-25T04:27:02.200Z,23.01
2023-04-25T04:28:02.136Z,23.02
2023-04-25T04:29:02.157Z,23.02
2023-04-25T04:30:02.201Z,23.02
2023-04-25T04:31:02.288Z,23.02
2023-04-25T04:32:02.156Z,23.03
2023-04-25T04:33:02.202Z,23.03
2023-04-25T04:34:02.128Z,23.03
2023-04-25T04:35:02.138Z,23.04
2023-04-25T04:36:02.165Z,23.03
2023-04-25T04:37:02.141Z,23.04
2023-04-25T04:38:02.170Z,23.03
2023-04-25T04:39:02.190Z,23.04
2023-04-25T04:40:02.192Z,23.03
2023-04-25T04:41:02.185Z,23.01
2023-04-25T04:42:02.114Z,23.01
2023-04-25T04:43:02.131Z,23.01
2023-04-25T04:44:02.128Z,23.02
2023-04-25T04:45:02.180Z,23.01
2023-04-25T04:46:02.166Z,23.02
2023-04-25T04:47:02.308Z,23.01
2023-04-25T04:48:02.140Z,23.01
2023-04-25T04:49:02.169Z,23.02
2023-04-25T04:50:02.189Z,23.02
2023-04-25T04:51:02.149Z,23.02
2023-04-25T04:52:02.416Z,23.01
2023-04-25T04:53:02.157Z,23.02
2023-04-25T04:54:02.171Z,23.02
2023-04-25T04:55:02.184Z,23.01
2023-04-25T04:56:02.186Z,23.01
2023-04-25T04:57:02.143Z,23.02
2023-04-25T04:58:02.179Z,23.01
2023-04-25T04:59:02.137Z,22.99
2023-04-25T05:00:02.318Z,22.99
2023-04-25T05:01:02.300Z,22.98
2023-04-25T05:02:02.155Z,22.96
2023-04-25T05:03:02.336Z,22.93
2023-04-25T05:04:02.572Z,22.90
2023-04-25T05:05:02.226Z,22.88
2023-04-25T05:06:02.255Z,22.87
2023-04-25T05:07:02.260Z,22.86
2023-04-25T05:08:02.295Z,22.85
2023-04-25T05:09:02.324Z,22.83
2023-04-25T05:10:02.313Z,22.82
2023-04-25T05:11:02.346Z,22.83
2023-04-25T05:12:02.348Z,22.83
2023-04-25T05:13:02.405Z,22.82
2023-04-25T05:14:02.408Z,22.79
2023-04-25T05:15:02.486Z,22.69
2023-04-25T05:16:02.498Z,22.46
2023-04-25T05:17:02.574Z,22.22
2023-04-25T05:18:02.712Z,22.00
2023-04-25T05:19:02.554Z,21.75
2023-04-25T05:20:02.642Z,21.56
2023-04-25T05:21:02.657Z,21.42
2023-04-25T05:22:02.670Z,21.31
2023-04-25T05:23:02.771Z,21.21
2023-04-25T05:24:02.849Z,21.14
2023-04-25T05:25:02.912Z,21.10
2023-04-25T05:26:02.972Z,21.04
2023-04-25T05:27:02.936Z,20.96
2023-04-25T05:28:02.919Z,20.90
2023-04-25T05:29:02.954Z,20.83
2023-04-25T05:30:02.995Z,20.71
2023-04-25T05:31:02.999Z,20.54
2023-04-25T05:32:03.056Z,20.19
2023-04-25T05:33:03.121Z,20.05
2023-04-25T05:34:03.083Z,20.06
2023-04-25T05:35:03.483Z,19.86
2023-04-25T05:36:03.079Z,19.69
2023-04-25T05:37:03.155Z,19.57
2023-04-25T05:38:03.121Z,19.39
2023-04-25T05:39:03.206Z,19.26
2023-04-25T05:40:03.415Z,19.17
2023-04-25T05:41:03.262Z,19.08
2023-04-25T05:42:03.295Z,19.00
2023-04-25T05:43:03.325Z,19.00
2023-04-25T05:44:03.444Z,18.91
2023-04-25T05:45:03.972Z,18.78
2023-04-25T05:47:22.615Z,18.70
2023-04-25T05:48:22.468Z,18.60
2023-04-25T05:49:22.458Z,18.66
2023-04-25T05:50:22.429Z,18.64
2023-04-25T05:51:22.438Z,18.76
2023-04-25T05:52:22.470Z,18.81
2023-04-25T05:53:22.372Z,18.71
2023-04-25T05:54:22.415Z,18.82
2023-04-25T05:55:22.731Z,18.78
2023-04-25T05:56:22.384Z,18.74
2023-04-25T05:57:22.352Z,18.73
2023-04-25T05:58:22.336Z,18.79
2023-04-25T05:59:22.398Z,18.80
2023-04-25T06:00:22.380Z,18.87
2023-04-25T06:01:22.325Z,19.03
2023-04-25T06:02:22.530Z,19.06
2023-04-25T06:03:22.472Z,19.06
2023-04-25T06:04:22.828Z,19.08
2023-04-25T06:05:22.454Z,18.96
2023-04-25T06:06:22.318Z,18.85
2023-04-25T06:07:22.334Z,18.75
2023-04-25T06:08:22.265Z,18.70
2023-04-25T06:09:22.309Z,18.86
2023-04-25T06:10:22.309Z,18.96
2023-04-25T06:11:22.260Z,18.92
2023-04-25T06:12:22.268Z,18.86
2023-04-25T06:13:22.272Z,18.70
2023-04-25T06:14:22.282Z,18.94
2023-04-25T06:15:28.254Z,19.29
2023-04-25T06:16:23.322Z,19.63
2023-04-25T06:17:22.273Z,19.93
2023-04-25T06:18:22.201Z,20.21
2023-04-25T06:19:22.223Z,20.45
2023-04-25T06:20:22.183Z,20.68
2023-04-25T06:21:22.224Z,20.88
2023-04-25T06:22:22.224Z,21.04
2023-04-25T06:23:22.201Z,21.18
2023-04-25T06:24:22.165Z,21.32
2023-04-25T06:25:22.311Z,21.45
2023-04-25T06:26:22.164Z,21.54
2023-04-25T06:27:22.142Z,21.62
2023-04-25T06:28:22.163Z,21.69
2023-04-25T06:29:22.220Z,21.75
2023-04-25T06:30:22.301Z,21.81
2023-04-25T06:31:22.418Z,21.85
2023-04-25T06:32:22.413Z,21.87
2023-04-25T06:33:22.526Z,21.90
2023-04-25T06:34:22.545Z,21.92
2023-04-25T06:35:22.701Z,21.92
2023-04-25T06:36:22.674Z,21.89
2023-04-25T06:37:22.665Z,21.89
2023-04-25T06:38:22.644Z,21.90
2023-04-25T06:39:22.688Z,21.87
2023-04-25T06:40:22.715Z,21.87
2023-04-25T06:41:24.030Z,21.85
2023-04-25T06:42:22.776Z,21.82
2023-04-25T06:43:22.957Z,21.80
2023-04-25T06:44:22.818Z,21.75
2023-04-25T06:45:23.175Z,21.71
2023-04-25T06:46:23.153Z,21.73
2023-04-25T06:47:23.938Z,21.74
2023-04-25T06:48:22.757Z,21.75
2023-04-25T06:49:22.792Z,21.75
2023-04-25T06:50:22.785Z,21.76
2023-04-25T06:51:24.368Z,21.75
2023-04-25T06:52:22.774Z,21.76
2023-04-25T06:53:22.823Z,21.80
2023-04-25T06:54:22.816Z,21.84
2023-04-25T06:55:22.863Z,21.87
2023-04-25T06:56:23.192Z,21.91
2023-04-25T06:57:23.023Z,21.93
2023-04-25T06:58:23.383Z,21.96
2023-04-25T06:59:23.122Z,21.99
2023-04-25T07:00:23.171Z,22.02
2023-04-25T07:01:23.643Z,22.06
2023-04-25T07:02:23.451Z,22.12
2023-04-25T07:03:23.875Z,22.19
2023-04-25T07:04:23.897Z,22.23
2023-04-25T07:05:23.482Z,22.28
2023-04-25T07:06:23.475Z,22.30
2023-04-25T07:07:23.478Z,22.29
2023-04-25T07:08:23.469Z,22.32
2023-04-25T07:09:24.143Z,22.35
2023-04-25T07:10:23.588Z,22.34
2023-04-25T07:11:23.669Z,22.36
2023-04-25T07:12:23.591Z,22.37
2023-04-25T07:13:23.611Z,22.39
2023-04-25T07:14:23.953Z,22.40
2023-04-25T07:15:23.701Z,22.40
2023-04-25T07:16:24.540Z,22.41
2023-04-25T07:17:24.629Z,22.41
2023-04-25T07:18:23.743Z,22.41
2023-04-25T07:19:23.764Z,22.41
2023-04-25T07:20:23.791Z,22.41
2023-04-25T07:21:24.593Z,22.41
2023-04-25T07:22:23.928Z,22.40
2023-04-25T07:23:23.893Z,22.40
2023-04-25T07:24:24.229Z,22.40
2023-04-25T07:25:24.316Z,22.40
2023-04-25T07:26:24.543Z,22.38
2023-04-25T07:27:23.939Z,22.40
2023-04-25T07:28:24.020Z,22.36
2023-04-25T07:29:24.031Z,22.37
2023-04-25T07:30:24.148Z,22.47
2023-04-25T07:31:24.204Z,22.45
2023-04-25T07:32:24.392Z,22.41
2023-04-25T07:33:24.152Z,22.34
2023-04-25T07:34:24.216Z,22.28
2023-04-25T07:35:24.282Z,22.21
2023-04-25T07:36:25.158Z,22.14
2023-04-25T07:37:24.807Z,22.08
2023-04-25T07:38:24.346Z,22.02
2023-04-25T07:39:25.172Z,21.97
2023-04-25T07:40:24.470Z,21.97
2023-04-25T07:41:24.732Z,21.98
2023-04-25T07:42:24.491Z,21.99
2023-04-25T07:43:24.587Z,22.03
2023-04-25T07:44:24.655Z,22.08
2023-04-25T07:45:24.706Z,22.12
2023-04-25T07:46:25.386Z,22.16
2023-04-25T07:47:24.834Z,22.18
2023-04-25T07:48:24.876Z,22.22
2023-04-25T07:49:24.884Z,22.24
2023-04-25T07:50:25.354Z,22.27
2023-04-25T07:51:25.203Z,22.32
2023-04-25T07:52:25.619Z,22.35
2023-04-25T07:53:25.331Z,22.39
2023-04-25T07:54:25.036Z,22.42
2023-04-25T07:55:25.031Z,22.46
2023-04-25T07:56:25.290Z,22.47
2023-04-25T07:57:25.169Z,22.47
2023-04-25T07:58:25.108Z,22.47
2023-04-25T07:59:29.314Z,22.47
2023-04-25T08:00:25.269Z,22.47
2023-04-25T08:01:25.789Z,22.45
2023-04-25T08:02:25.162Z,22.45
2023-04-25T08:03:25.822Z,22.46
2023-04-25T08:04:25.626Z,22.44
2023-04-25T08:05:25.297Z,21.94
2023-04-25T08:06:25.281Z,21.45
2023-04-25T08:07:25.340Z,21.00
2023-04-25T08:08:25.779Z,20.61
2023-04-25T08:09:25.072Z,20.66
2023-04-25T08:10:25.048Z,20.82
2023-04-25T08:11:25.167Z,20.92
2023-04-25T08:12:25.087Z,20.92
2023-04-25T08:13:25.437Z,21.07
2023-04-25T08:14:25.126Z,21.23
2023-04-25T08:15:25.463Z,21.39
2023-04-25T08:16:26.124Z,21.53
2023-04-25T08:17:25.809Z,21.67
2023-04-25T08:18:25.376Z,21.78
2023-04-25T08:19:25.297Z,21.89
2023-04-25T08:20:25.343Z,21.99
2023-04-25T08:21:25.362Z,22.07
2023-04-25T08:22:25.426Z,22.15
2023-04-25T08:23:25.427Z,22.21
2023-04-25T08:24:25.808Z,22.27
2023-04-25T08:25:25.476Z,22.33
2023-04-25T08:26:25.452Z,22.37
2023-04-25T08:27:25.958Z,22.42
2023-04-25T08:28:25.605Z,22.47
2023-04-25T08:29:25.563Z,22.50
2023-04-25T08:30:25.632Z,22.53
2023-04-25T08:31:25.670Z,22.55
2023-04-25T08:32:25.748Z,22.61
2023-04-25T08:33:25.808Z,22.65
2023-04-25T08:34:25.783Z,22.75
2023-04-25T08:35:26.027Z,22.75
2023-04-25T08:36:38.565Z,22.71
2023-04-25T08:37:27.448Z,22.61
2023-04-25T08:38:25.747Z,22.51
2023-04-25T08:39:26.046Z,22.43
2023-04-25T08:40:25.699Z,22.36
2023-04-25T08:41:25.660Z,22.27
2023-04-25T08:42:25.999Z,22.19
2023-04-25T08:43:25.656Z,22.10
2023-04-25T08:44:25.668Z,22.05
2023-04-25T08:45:25.639Z,22.06
2023-04-25T08:46:25.708Z,22.10
2023-04-25T08:47:25.712Z,22.13
2023-04-25T08:48:26.044Z,22.16
2023-04-25T08:49:25.802Z,22.13
2023-04-25T08:50:25.768Z,22.05
2023-04-25T08:51:25.797Z,22.10
2023-04-25T08:52:27.359Z,22.14
2023-04-25T08:53:26.265Z,22.19
2023-04-25T08:54:35.757Z,22.25
2023-04-25T08:55:27.028Z,22.30
2023-04-25T08:56:26.342Z,22.36
2023-04-25T08:57:26.291Z,22.42
2023-04-25T08:58:26.230Z,22.47
2023-04-25T08:59:25.901Z,22.53
2023-04-25T09:00:25.891Z,22.53
2023-04-25T09:01:26.292Z,22.56
2023-04-25T09:02:26.408Z,22.59
2023-04-25T09:03:25.903Z,22.60
2023-04-25T09:04:25.911Z,22.63
2023-04-25T09:05:25.829Z,22.66
2023-04-25T09:06:25.821Z,22.67
2023-04-25T09:07:26.200Z,22.69
2023-04-25T09:08:25.794Z,22.69
2023-04-25T09:09:25.794Z,22.70
2023-04-25T09:10:26.170Z,22.71
2023-04-25T09:11:26.167Z,22.72
2023-04-25T09:12:26.229Z,22.72
2023-04-25T09:13:26.644Z,22.72
2023-04-25T09:14:25.845Z,22.72
2023-04-25T09:15:25.837Z,22.69
2023-04-25T09:16:26.558Z,22.68
2023-04-25T09:17:26.265Z,22.69
2023-04-25T09:18:29.915Z,22.71
2023-04-25T09:19:38.796Z,22.71
2023-04-25T09:20:27.668Z,22.71
2023-04-25T09:21:25.862Z,22.73
2023-04-25T09:22:25.837Z,22.65
2023-04-25T09:23:25.795Z,22.60
2023-04-25T09:24:25.806Z,22.61
2023-04-25T09:25:25.816Z,22.62
2023-04-25T09:26:25.777Z,22.64
2023-04-25T09:27:26.319Z,22.66
2023-04-25T09:28:27.322Z,22.65
2023-04-25T09:29:26.338Z,22.64
2023-04-25T09:30:26.065Z,22.65
2023-04-25T09:31:26.594Z,22.66
2023-04-25T09:32:26.187Z,22.66
2023-04-25T09:33:26.094Z,22.66
2023-04-25T09:34:26.133Z,22.68
2023-04-25T09:35:26.076Z,22.69
2023-04-25T09:36:26.262Z,22.70
2023-04-25T09:37:27.098Z,22.55
2023-04-25T09:38:26.213Z,22.28
2023-04-25T09:39:27.104Z,22.09
2023-04-25T09:40:26.318Z,21.93
2023-04-25T09:41:26.368Z,21.66
2023-04-25T09:42:27.110Z,21.59
2023-04-25T09:43:26.433Z,21.67
2023-04-25T09:44:27.096Z,21.69
2023-04-25T09:45:26.458Z,21.70
2023-04-25T09:46:26.477Z,21.78
2023-04-25T09:47:27.077Z,21.87
2023-04-25T09:48:26.989Z,21.98
2023-04-25T09:49:26.593Z,22.09
2023-04-25T09:50:26.710Z,22.19
2023-04-25T09:51:26.670Z,22.27
2023-04-25T09:52:27.005Z,22.34
2023-04-25T09:53:26.717Z,22.41
2023-04-25T09:54:26.734Z,22.47
2023-04-25T09:55:26.737Z,22.50
2023-04-25T09:56:26.806Z,22.54
2023-04-25T09:57:26.906Z,22.58
2023-04-25T09:58:28.058Z,22.61
2023-04-25T09:59:26.757Z,22.66
2023-04-25T10:00:26.830Z,22.68
2023-04-25T10:01:27.174Z,22.70
2023-04-25T10:02:26.980Z,22.72
2023-04-25T10:03:27.361Z,22.74
2023-04-25T10:04:26.934Z,22.75
2023-04-25T10:05:29.206Z,22.76
2023-04-25T10:06:26.793Z,22.78
2023-04-25T10:07:26.862Z,22.80
2023-04-25T10:08:26.784Z,22.81
2023-04-25T10:09:26.834Z,22.82
2023-04-25T10:10:27.093Z,22.83
2023-04-25T10:11:26.843Z,22.85
2023-04-25T10:12:26.760Z,22.87
2023-04-25T10:13:27.255Z,22.87
2023-04-25T10:14:26.824Z,22.87
2023-04-25T10:15:26.824Z,22.88
2023-04-25T10:16:26.962Z,22.87
2023-04-25T10:17:26.938Z,22.87
2023-04-25T10:18:27.099Z,22.86
2023-04-25T10:19:27.634Z,22.87
2023-04-25T10:20:26.805Z,22.87
2023-04-25T10:21:27.126Z,22.87
2023-04-25T10:22:26.958Z,22.88
2023-04-25T10:23:27.305Z,22.88
2023-04-25T10:24:26.785Z,22.89
2023-04-25T10:25:27.101Z,22.91
2023-04-25T10:26:27.702Z,22.93
2023-04-25T10:27:26.814Z,22.92
2023-04-25T10:28:27.136Z,22.92
2023-04-25T10:29:27.153Z,22.93
2023-04-25T10:30:27.182Z,22.91
2023-04-25T10:31:26.944Z,22.75
2023-04-25T10:32:26.843Z,22.62
2023-04-25T10:33:27.211Z,22.44
2023-04-25T10:34:26.901Z,22.23
2023-04-25T10:35:27.030Z,22.00
2023-04-25T10:36:26.947Z,21.79
2023-04-25T10:37:27.412Z,21.62
2023-04-25T10:38:27.539Z,21.58
2023-04-25T10:39:27.121Z,21.61
2023-04-25T10:40:27.178Z,21.61
2023-04-25T10:41:27.409Z,21.45
2023-04-25T10:42:27.202Z,21.40
2023-04-25T10:43:28.114Z,21.47
2023-04-25T10:44:27.315Z,21.53
2023-04-25T10:45:27.372Z,21.51
2023-04-25T10:46:27.808Z,21.43
2023-04-25T10:47:27.492Z,21.39
2023-04-25T10:48:27.857Z,21.42
2023-04-25T10:49:28.133Z,21.42
2023-04-25T10:50:27.824Z,21.44
2023-04-25T10:51:27.749Z,21.46
2023-04-25T10:52:27.713Z,21.45
2023-04-25T10:53:28.684Z,21.38
2023-04-25T10:54:27.712Z,21.30
2023-04-25T10:55:27.708Z,21.21
2023-04-25T10:56:27.789Z,21.17
2023-04-25T10:57:28.199Z,21.23
2023-04-25T10:58:28.368Z,21.33
2023-04-25T10:59:28.650Z,21.45
2023-04-25T11:00:33.939Z,21.57
2023-04-25T11:01:28.997Z,21.67
2023-04-25T11:02:28.070Z,21.77
2023-04-25T11:03:28.439Z,21.86
2023-04-25T11:04:28.241Z,21.95
2023-04-25T11:05:28.710Z,22.03
2023-04-25T11:06:27.978Z,22.10
2023-04-25T11:07:28.024Z,22.15
2023-04-25T11:08:27.879Z,22.19
2023-04-25T11:09:27.847Z,22.24
2023-04-25T11:10:28.043Z,22.29
2023-04-25T11:11:28.133Z,22.32
2023-04-25T11:12:27.956Z,22.34
2023-04-25T11:13:28.280Z,22.37
2023-04-25T11:14:27.922Z,22.41
2023-04-25T11:15:28.973Z,22.44
2023-04-25T11:17:29.096Z,22.47
2023-04-25T11:18:29.252Z,22.48
2023-04-25T11:19:27.888Z,22.49
2023-04-25T11:20:28.233Z,22.51
2023-04-25T11:21:27.870Z,22.52
2023-04-25T11:22:27.864Z,22.52
2023-04-25T11:23:28.368Z,22.53
2023-04-25T11:24:27.890Z,22.53
2023-04-25T11:25:28.251Z,22.52
2023-04-25T11:26:27.895Z,22.53
2023-04-25T11:27:27.891Z,22.55
2023-04-25T11:28:28.372Z,22.64
2023-04-25T11:29:27.966Z,22.76
2023-04-25T11:30:27.808Z,22.86
2023-04-25T11:31:27.893Z,22.83
2023-04-25T11:32:28.013Z,22.67
2023-04-25T11:33:27.864Z,22.45
2023-04-25T11:34:28.270Z,22.30
2023-04-25T11:35:27.947Z,21.96
2023-04-25T11:36:28.043Z,21.62
2023-04-25T11:37:27.941Z,21.31
2023-04-25T11:38:29.326Z,21.13
2023-04-25T11:39:29.142Z,21.01
2023-04-25T11:40:29.753Z,21.02
2023-04-25T11:41:28.194Z,21.12
2023-04-25T11:42:28.141Z,21.06
2023-04-25T11:43:28.167Z,20.93
2023-04-25T11:44:28.244Z,20.91
2023-04-25T11:45:28.242Z,20.88
2023-04-25T11:46:28.359Z,20.97
2023-04-25T11:47:28.335Z,21.10
2023-04-25T11:48:28.291Z,21.25
2023-04-25T11:49:28.939Z,21.39
2023-04-25T11:50:28.324Z,21.51
2023-04-25T11:51:28.278Z,21.64
2023-04-25T11:52:28.345Z,21.74
2023-04-25T11:53:28.401Z,21.84
2023-04-25T11:54:28.447Z,21.93
2023-04-25T11:55:28.529Z,22.02
2023-04-25T11:56:28.520Z,22.08
2023-04-25T11:57:28.608Z,22.14
2023-04-25T11:58:28.659Z,22.18
2023-04-25T11:59:28.740Z,22.20
2023-04-25T12:00:28.698Z,22.23
2023-04-25T12:01:30.492Z,22.26
2023-04-25T12:02:29.835Z,22.28
2023-04-25T12:03:29.065Z,22.29
2023-04-25T12:04:28.874Z,22.31
2023-04-25T12:05:32.157Z,22.34
2023-04-25T12:06:28.795Z,22.35
2023-04-25T12:07:28.714Z,22.38
2023-04-25T12:08:28.705Z,22.35
2023-04-25T12:09:28.714Z,22.33
2023-04-25T12:10:28.670Z,22.34
2023-04-25T12:11:28.705Z,22.36
2023-04-25T12:12:28.679Z,22.37
2023-04-25T12:13:28.640Z,22.38
2023-04-25T12:14:28.720Z,22.38
2023-04-25T12:15:28.656Z,22.39
2023-04-25T12:16:28.720Z,22.40
2023-04-25T12:17:28.695Z,22.41
2023-04-25T12:18:28.927Z,22.44
2023-04-25T12:19:28.745Z,22.44
2023-04-25T12:20:28.742Z,22.45
2023-04-25T12:21:28.815Z,22.46
2023-04-25T12:22:28.893Z,22.47
2023-04-25T12:23:28.903Z,22.47
2023-04-25T12:24:29.212Z,22.48
2023-04-25T12:25:28.878Z,22.50
2023-04-25T12:26:28.922Z,22.52
2023-04-25T12:27:29.641Z,22.54
2023-04-25T12:28:28.970Z,22.54
2023-04-25T12:29:34.631Z,22.56
2023-04-25T12:30:30.002Z,22.57
2023-04-25T12:31:29.046Z,22.58
2023-04-25T12:32:29.032Z,22.58
2023-04-25T12:33:28.964Z,22.57
2023-04-25T12:34:29.057Z,22.59
2023-04-25T12:35:28.987Z,22.53
2023-04-25T12:36:30.246Z,22.33
2023-04-25T12:37:29.008Z,22.24
2023-04-25T12:38:28.990Z,22.26
2023-04-25T12:39:28.989Z,22.30
2023-04-25T12:40:28.920Z,22.32
2023-04-25T12:41:28.885Z,22.37
2023-04-25T12:42:28.955Z,22.43
2023-04-25T12:43:28.895Z,22.46
2023-04-25T12:44:28.916Z,22.48
2023-04-25T12:45:28.910Z,22.51
2023-04-25T12:46:28.894Z,22.52
2023-04-25T12:47:28.935Z,22.53
2023-04-25T12:48:28.933Z,22.54
2023-04-25T12:49:29.004Z,22.56
2023-04-25T12:50:29.013Z,22.56
2023-04-25T12:51:29.020Z,22.58
2023-04-25T12:52:28.989Z,22.58
2023-04-25T12:53:29.020Z,22.58
2023-04-25T12:54:29.069Z,22.60
2023-04-25T12:55:29.083Z,22.60